New Hudson, MI (48165)

5:32 PM EDT on July 28, 2016 (GMT -0400)
The Village of New Hudson | | Change Station

Elev 991 ft 42.51 °N, 83.63 °W | Updated 8 seconds ago

Mostly Cloudy
Mostly Cloudy
84.2 °F
Feels Like 87 °F
N
0.0
Wind Variable Wind from WSW
Gusts 0.0 mph

Today
High -- | Low -- °F
--% Chance of Precip.
Yesterday
High -- | Low -- °F
Precip. -- in
Pressure 29.87 in
Visibility 10.0 miles
Clouds Few 4200 ft
Mostly Cloudy 24000 ft
Heat Index 87 °F
Dew Point 67 °F
Humidity 56%
Rainfall 0.00 in
Snow Depth Not available.
6:23 AM 8:58 PM
Waning Crescent, 28% visible
METAR KPTK 282053Z 01008KT 10SM FEW042 BKN240 28/17 A2989 RMK AO2 SLP115 T02830167 56010
Pressure 29.87 in
Visibility 10.0 miles
Clouds Few 4200 ft
Mostly Cloudy 24000 ft
Heat Index 87 °F
Dew Point 67 °F
Humidity 56%
Rainfall 0.00 in
Snow Depth Not available.
6:23 AM 8:58 PM
Waning Crescent, 28% visible
METAR KPTK 282053Z 01008KT 10SM FEW042 BKN240 28/17 A2989 RMK AO2 SLP115 T02830167 56010

10-Day Weather Forecast

Almanac

Astronomy

Jul. 28, 2016 Rise Set
Actual Time
Civil Twilight
Nautical Twilight
Astronomical Twilight
Moon
Length of Visible Light
Length of Day
Tomorrow will be .
, % of the Moon is Illuminated

Today's Extremes

State Highs State Lows

Community

WunderPhotos

Upload Photos

1,928,224 photos uploaded!

WunderBlog® & News

Nearby

Air Quality

  Air Quality AQ Index Pollutant
Not available.

Snow Depth

Station Depth Elevation

Earthquake Activity

City Distance Mag. Time & Date
Minimum magnitude displayed is 2.5.

Coastal Water Temperatures

Place Temperature

Stations

Nearby Weather Stations

Station Location Temp. Windchill Dew Point Humidity Wind Precip. Elev Updated Type
                   

Watches & Warnings

There are currently no watches in effect.